Главная страница
METAR-TAF:

METAR-TAF

Аэропорты :

Нджамена, Чад

широта: 12-08N, долгота: 015-02E, высота над уровнем моря: 295 м

Текущие метеонаблюдения

Эта сводка был подготовлена 20 минут назад, в 12:00 UTC
Ветер 5 Узел от северно-северо-западный, изменяющийся между западный-юго-западный и северо-восточный
Температура 31°C
Влажность 7%
Давление 1011 hPa
Видимость 10 км и более
Нет облачности ниже 1500 м, и нет кучево-дождевой облачности

METAR: FTTJ 211200Z 33005KT 250V050 CAVOK 31/M09 Q1011 NOSIG

Время: 13:20 (12:20 UTC)

Прогноз

Эта сводка был подготовлена 1 час и 5 минут назад, в 11:15 UTC
Прогноз действительный с 21-го 12 UTC до 22-го 18 UTC
Ветер 5 Узел от северный
Видимость 10 км и более
Нет облачности ниже 1500 м, и нет кучево-дождевой облачности

TAF: FTTJ 211115Z 2112/2218 36005KT CAVOK

Метеонаблюдения и прогнозы для более 4000 аэропортов (сводки METAR и TAF).

Имеющиеся станции представлены на карте желтыми и красными точками.

Чтобы увидеть название станции, наведите на нее мышь.

Затем щелкните, чтобы увидеть метеонаблюдения и метеопрогнозы.

Управление картой: чтобы увеличить масштаб, щелкните зеленые кнопки с черным крестиком; чтобы уменьшить масштаб, щелкните зеленую кнопку с тире; для просмотра соседних карт щелкайте зеленые стрелки.


METAR-TAF: